Glen Head, New York
Current Conditions -  °F | °C
As of 1:53 PM on Tuesday 21 Oct 2014 (Local Time) from KFRG Reporting Station
Overcast Overcast  
Wind Chill: 64°   Ceiling: 5500
Heat Index: 64°   Visibility: 10mi
Dew Point: 52°   Wind: 9mph
Humidity: 65%   Direction: 140°SE
Pressure: 29.86"   Gusts: NA
Location:  40.84°N, 73.62°W
Report Text: KFRG 211753Z 14008KT 10SM SCT027 BKN055 OVC070 18/11 A2986 RMK AO2 LTG DSNT SW SLP111 T01780111 10200 20117 58011
Loading
Personal Weather Stations






























Interactive Weather Map
Tropical Storm Tracking
New forecast layout! Learn more

10-Day Weather Forecast

Advertisements
Track Severe Weather on mobile